createdAt,value
2023-04-17T00:01:32.443Z,14.95
2023-04-17T00:03:59.304Z,15.03
2023-04-17T00:06:27.107Z,15.04
2023-04-17T00:08:54.108Z,14.98
2023-04-17T00:11:21.406Z,14.96
2023-04-17T00:13:48.179Z,14.98
2023-04-17T00:16:14.944Z,14.86
2023-04-17T00:18:41.784Z,14.82
2023-04-17T00:21:08.594Z,14.79
2023-04-17T00:23:35.703Z,14.79
2023-04-17T00:26:02.557Z,14.79
2023-04-17T00:28:29.286Z,14.66
2023-04-17T00:30:58.284Z,14.68
2023-04-17T00:33:25.306Z,14.62
2023-04-17T00:35:52.359Z,14.55
2023-04-17T00:38:19.137Z,14.55
2023-04-17T00:40:46.341Z,14.54
2023-04-17T00:43:13.203Z,14.53
2023-04-17T00:45:41.565Z,14.54
2023-04-17T00:48:09.693Z,14.46
2023-04-17T00:50:37.056Z,14.40
2023-04-17T00:53:03.904Z,14.20
2023-04-17T00:55:32.321Z,14.22
2023-04-17T00:57:59.801Z,14.23
2023-04-17T01:00:26.894Z,14.01
2023-04-17T01:02:57.720Z,14.04
2023-04-17T01:05:26.157Z,14.00
2023-04-17T01:07:55.063Z,14.09
2023-04-17T01:10:21.900Z,14.16
2023-04-17T01:13:05.011Z,14.25
2023-04-17T01:15:33.925Z,14.26
2023-04-17T01:18:00.738Z,14.22
2023-04-17T01:20:31.350Z,14.26
2023-04-17T01:22:59.090Z,14.17
2023-04-17T01:25:26.787Z,14.03
2023-04-17T01:27:53.918Z,14.00
2023-04-17T01:30:21.140Z,14.06
2023-04-17T01:32:56.399Z,13.96
2023-04-17T01:35:23.152Z,13.99
2023-04-17T01:37:50.092Z,13.95
2023-04-17T01:40:17.054Z,13.90
2023-04-17T01:42:45.645Z,13.94
2023-04-17T01:45:12.425Z,13.83
2023-04-17T01:47:40.095Z,13.89
2023-04-17T01:50:09.278Z,13.84
2023-04-17T01:52:36.854Z,13.83
2023-04-17T01:55:04.452Z,13.82
2023-04-17T01:57:32.901Z,13.77
2023-04-17T01:59:59.732Z,13.68
2023-04-17T02:02:26.819Z,13.59
2023-04-17T02:04:54.456Z,13.55
2023-04-17T02:07:21.700Z,13.47
2023-04-17T02:09:48.533Z,13.27
2023-04-17T02:12:15.917Z,13.27
2023-04-17T02:14:43.145Z,13.17
2023-04-17T02:17:10.480Z,13.10
2023-04-17T02:19:37.231Z,13.06
2023-04-17T02:22:04.232Z,13.09
2023-04-17T02:24:31.579Z,13.14
2023-04-17T02:27:00.445Z,13.42
2023-04-17T02:29:27.172Z,13.28
2023-04-17T02:31:54.218Z,13.50
2023-04-17T02:34:21.069Z,13.40
2023-04-17T02:36:49.922Z,13.49
2023-04-17T02:39:18.728Z,13.42
2023-04-17T02:41:45.478Z,13.41
2023-04-17T02:44:12.380Z,13.41
2023-04-17T02:46:39.228Z,13.38
2023-04-17T02:49:08.793Z,13.32
2023-04-17T02:51:36.352Z,13.26
2023-04-17T02:54:03.557Z,13.26
2023-04-17T02:56:30.341Z,13.11
2023-04-17T02:58:57.208Z,12.87
2023-04-17T03:01:26.568Z,12.88
2023-04-17T03:03:53.805Z,12.80
2023-04-17T03:06:21.641Z,12.74
2023-04-17T03:08:48.393Z,12.78
2023-04-17T03:11:15.873Z,12.81
2023-04-17T03:13:43.684Z,12.80
2023-04-17T03:16:10.533Z,12.79
2023-04-17T03:18:41.938Z,12.70
2023-04-17T03:21:08.851Z,12.57
2023-04-17T03:23:35.861Z,12.48
2023-04-17T03:26:02.843Z,12.51
2023-04-17T03:28:32.735Z,12.55
2023-04-17T03:31:00.896Z,12.56
2023-04-17T03:33:27.895Z,12.62
2023-04-17T03:35:57.430Z,12.60
2023-04-17T03:38:24.347Z,12.66
2023-04-17T03:40:52.368Z,12.66
2023-04-17T03:43:20.296Z,12.68
2023-04-17T03:45:47.128Z,12.62
2023-04-17T03:48:14.134Z,12.59
2023-04-17T03:50:41.586Z,12.47
2023-04-17T03:53:08.582Z,12.50
2023-04-17T03:55:35.478Z,12.55
2023-04-17T03:58:02.985Z,12.57
2023-04-17T04:00:31.839Z,12.56
2023-04-17T04:03:04.967Z,12.42
2023-04-17T04:05:39.649Z,12.43
2023-04-17T04:08:08.366Z,12.35
2023-04-17T04:10:46.888Z,12.32
2023-04-17T04:13:19.243Z,12.34
2023-04-17T04:15:52.173Z,12.25
2023-04-17T04:18:21.355Z,12.23
2023-04-17T04:20:48.594Z,12.30
2023-04-17T04:23:25.068Z,12.25
2023-04-17T04:25:52.090Z,12.25
2023-04-17T04:28:30.381Z,12.20
2023-04-17T04:30:58.844Z,12.25
2023-04-17T04:33:32.013Z,12.22
2023-04-17T04:36:01.827Z,12.21
2023-04-17T04:38:33.218Z,12.13
2023-04-17T04:41:11.581Z,12.19
2023-04-17T04:43:41.493Z,11.99
2023-04-17T04:46:10.641Z,11.98
2023-04-17T04:48:42.847Z,11.93
2023-04-17T04:51:11.724Z,11.98
2023-04-17T04:53:39.916Z,12.00
2023-04-17T04:56:06.980Z,11.93
2023-04-17T04:58:35.453Z,11.83
2023-04-17T05:01:04.252Z,11.95
2023-04-17T05:03:38.887Z,11.99
2023-04-17T05:06:07.133Z,12.10
2023-04-17T05:08:41.268Z,12.08
2023-04-17T05:11:15.383Z,12.17
2023-04-17T05:13:42.626Z,12.23
2023-04-17T05:16:16.172Z,12.20
2023-04-17T05:18:45.895Z,12.07
2023-04-17T05:21:14.933Z,11.95
2023-04-17T05:23:42.726Z,11.90
2023-04-17T05:26:09.488Z,11.86
2023-04-17T05:28:36.271Z,11.85
2023-04-17T05:31:03.369Z,11.87
2023-04-17T05:33:37.821Z,11.88
2023-04-17T05:36:07.448Z,11.87
2023-04-17T05:38:37.852Z,11.93
2023-04-17T05:41:08.442Z,11.85
2023-04-17T05:43:37.194Z,11.92
2023-04-17T05:46:04.043Z,11.89
2023-04-17T05:48:31.378Z,12.05
2023-04-17T05:50:58.335Z,12.06
2023-04-17T05:53:25.073Z,12.22
2023-04-17T05:55:55.844Z,12.22
2023-04-17T05:58:24.438Z,12.31
2023-04-17T06:00:55.661Z,12.42
2023-04-17T06:03:23.661Z,12.45
2023-04-17T06:05:57.696Z,12.63
2023-04-17T06:08:25.227Z,12.68
2023-04-17T06:10:52.380Z,12.71
2023-04-17T06:13:19.210Z,12.82
2023-04-17T06:15:50.717Z,12.98
2023-04-17T06:18:17.908Z,13.14
2023-04-17T06:20:45.972Z,13.25
2023-04-17T06:23:12.916Z,13.39
2023-04-17T06:25:39.818Z,13.41
2023-04-17T06:28:06.602Z,13.44
2023-04-17T06:30:34.373Z,13.42
2023-04-17T06:33:02.323Z,13.47
2023-04-17T06:35:30.118Z,13.52
2023-04-17T06:38:09.725Z,13.54
2023-04-17T06:40:36.731Z,13.60
2023-04-17T06:43:05.786Z,13.65
2023-04-17T06:45:34.460Z,13.66
2023-04-17T06:48:02.487Z,13.67
2023-04-17T06:50:29.479Z,13.74
2023-04-17T06:52:56.273Z,13.80
2023-04-17T06:55:23.192Z,13.94
2023-04-17T06:57:49.913Z,14.10
2023-04-17T07:00:17.171Z,14.27
2023-04-17T07:02:44.426Z,14.44
2023-04-17T07:05:11.734Z,14.67
2023-04-17T07:07:39.811Z,14.73
2023-04-17T07:10:07.198Z,14.90
2023-04-17T07:12:34.129Z,15.05
2023-04-17T07:15:01.021Z,15.16
2023-04-17T07:17:27.734Z,15.34
2023-04-17T07:19:54.465Z,15.44
2023-04-17T07:22:21.655Z,15.58
2023-04-17T07:24:48.424Z,15.72
2023-04-17T07:27:15.130Z,15.85
2023-04-17T07:29:41.928Z,16.03
2023-04-17T07:32:08.673Z,16.14
2023-04-17T07:34:35.414Z,16.21
2023-04-17T07:37:02.205Z,16.37
2023-04-17T07:39:31.664Z,16.48
2023-04-17T07:41:58.540Z,16.58
2023-04-17T07:44:25.271Z,16.79
2023-04-17T07:46:52.053Z,16.97
2023-04-17T07:49:18.947Z,16.96
2023-04-17T07:51:45.755Z,17.01
2023-04-17T07:54:12.616Z,17.13
2023-04-17T07:56:40.022Z,17.32
2023-04-17T07:59:06.857Z,17.22
2023-04-17T08:01:33.923Z,17.20
2023-04-17T08:04:01.434Z,17.39
2023-04-17T08:06:28.552Z,17.44
2023-04-17T08:08:55.357Z,17.53
2023-04-17T08:11:22.422Z,17.67
2023-04-17T08:13:49.125Z,17.68
2023-04-17T08:16:15.940Z,17.75
2023-04-17T08:18:42.756Z,17.75
2023-04-17T08:21:09.608Z,17.85
2023-04-17T08:23:36.430Z,17.85
2023-04-17T08:26:04.015Z,18.02
2023-04-17T08:28:30.946Z,18.00
2023-04-17T08:30:57.796Z,18.10
2023-04-17T08:33:24.559Z,18.14
2023-04-17T08:35:51.844Z,18.09
2023-04-17T08:38:18.651Z,18.06
2023-04-17T08:40:52.159Z,17.95
2023-04-17T08:43:21.038Z,18.08
2023-04-17T08:45:55.592Z,18.03
2023-04-17T08:48:23.790Z,17.91
2023-04-17T08:50:53.791Z,17.97
2023-04-17T08:53:21.184Z,18.01
2023-04-17T08:55:48.482Z,17.95
2023-04-17T08:58:15.693Z,18.06
2023-04-17T09:00:44.302Z,18.08
2023-04-17T09:03:13.526Z,18.07
2023-04-17T09:05:43.793Z,18.19
2023-04-17T09:08:14.414Z,18.27
2023-04-17T09:10:46.196Z,18.42
2023-04-17T09:13:18.222Z,18.50
2023-04-17T09:15:47.007Z,18.63
2023-04-17T09:18:31.193Z,18.71
2023-04-17T09:21:00.001Z,18.72
2023-04-17T09:23:31.906Z,18.76
2023-04-17T09:26:11.543Z,18.65
2023-04-17T09:28:39.747Z,18.68
2023-04-17T09:31:27.679Z,18.57
2023-04-17T09:34:05.466Z,18.67
2023-04-17T09:36:34.723Z,18.87
2023-04-17T09:39:16.586Z,18.96
2023-04-17T09:41:43.457Z,19.04
2023-04-17T09:44:12.488Z,19.04
2023-04-17T09:46:42.934Z,18.88
2023-04-17T09:49:33.992Z,18.85
2023-04-17T09:52:01.983Z,18.91
2023-04-17T09:54:31.575Z,18.88
2023-04-17T09:56:59.329Z,18.90
2023-04-17T09:59:27.624Z,18.97
2023-04-17T10:01:54.803Z,18.89
2023-04-17T10:04:23.055Z,18.88
2023-04-17T10:06:50.427Z,18.94
2023-04-17T10:09:17.209Z,18.87
2023-04-17T10:11:46.191Z,18.87
2023-04-17T10:14:27.849Z,18.81
2023-04-17T10:16:54.830Z,18.87
2023-04-17T10:19:31.109Z,18.90
2023-04-17T10:22:19.577Z,18.86
2023-04-17T10:24:48.743Z,18.90
2023-04-17T10:27:27.485Z,18.89
2023-04-17T10:29:56.021Z,18.99
2023-04-17T10:32:25.870Z,19.14
2023-04-17T10:34:54.203Z,19.26
2023-04-17T10:37:23.093Z,19.31
2023-04-17T10:39:52.105Z,19.38
2023-04-17T10:42:20.593Z,19.38
2023-04-17T10:44:48.448Z,19.76
2023-04-17T10:47:15.947Z,19.99
2023-04-17T10:49:54.976Z,20.14
2023-04-17T10:52:40.492Z,20.04
2023-04-17T10:55:20.848Z,19.70
2023-04-17T10:58:11.987Z,19.84
2023-04-17T11:00:49.689Z,19.92
2023-04-17T11:03:17.506Z,19.73
2023-04-17T11:05:48.019Z,19.62
2023-04-17T11:08:15.665Z,19.62
2023-04-17T11:10:42.493Z,19.84
2023-04-17T11:13:10.478Z,20.03
2023-04-17T11:15:37.417Z,20.06
2023-04-17T11:18:04.397Z,19.87
2023-04-17T11:20:33.205Z,20.04
2023-04-17T11:23:04.991Z,20.26
2023-04-17T11:25:33.942Z,20.37
2023-04-17T11:28:03.280Z,20.26
2023-04-17T11:30:31.769Z,20.19
2023-04-17T11:33:03.442Z,19.94
2023-04-17T11:35:32.821Z,19.89
2023-04-17T11:38:17.963Z,19.85
2023-04-17T11:40:54.200Z,20.11
2023-04-17T11:43:22.672Z,19.89
2023-04-17T11:45:54.512Z,19.86
2023-04-17T11:48:24.614Z,20.09
2023-04-17T11:50:58.889Z,19.95
2023-04-17T11:53:25.775Z,20.00
2023-04-17T11:56:15.988Z,19.87
2023-04-17T11:58:53.531Z,19.94
2023-04-17T12:01:25.812Z,19.87
2023-04-17T12:03:57.255Z,19.78
2023-04-17T12:06:24.789Z,19.83
2023-04-17T12:08:53.864Z,19.68
2023-04-17T12:11:29.405Z,19.64
2023-04-17T12:13:56.704Z,19.60
2023-04-17T12:16:25.030Z,19.46
2023-04-17T12:18:52.499Z,19.36
2023-04-17T12:21:26.697Z,19.40
2023-04-17T12:23:53.503Z,19.58
2023-04-17T12:26:20.401Z,19.57
2023-04-17T12:28:47.174Z,19.43
2023-04-17T12:31:14.255Z,19.48
2023-04-17T12:33:41.495Z,19.57
2023-04-17T12:36:08.988Z,19.35
2023-04-17T12:38:36.170Z,19.31
2023-04-17T12:41:02.961Z,19.43
2023-04-17T12:43:31.342Z,19.54
2023-04-17T12:45:58.464Z,19.66
2023-04-17T12:48:25.293Z,19.78
2023-04-17T12:50:52.120Z,19.56
2023-04-17T12:53:18.941Z,19.58
2023-04-17T12:55:46.049Z,19.65
2023-04-17T12:58:13.438Z,19.42
2023-04-17T13:00:43.710Z,19.11
2023-04-17T13:03:12.028Z,19.37
2023-04-17T13:05:39.664Z,19.50
2023-04-17T13:08:06.581Z,19.08
2023-04-17T13:10:34.382Z,19.47
2023-04-17T13:13:02.340Z,19.32
2023-04-17T13:15:29.135Z,19.30
2023-04-17T13:17:56.139Z,19.61
2023-04-17T13:20:22.975Z,19.46
2023-04-17T13:22:49.827Z,19.65
2023-04-17T13:25:16.714Z,19.82
2023-04-17T13:27:43.456Z,19.84
2023-04-17T13:30:10.899Z,19.84
2023-04-17T13:32:39.505Z,20.06
2023-04-17T13:35:08.837Z,19.89
2023-04-17T13:37:35.634Z,19.93
2023-04-17T13:40:05.236Z,19.88
2023-04-17T13:42:32.081Z,19.95
2023-04-17T13:44:58.810Z,20.18
2023-04-17T13:47:25.672Z,20.05
2023-04-17T13:49:52.458Z,19.62
2023-04-17T13:52:19.293Z,19.85
2023-04-17T13:54:46.044Z,20.16
2023-04-17T13:57:14.682Z,20.05
2023-04-17T13:59:41.452Z,20.22
2023-04-17T14:02:11.189Z,20.40
2023-04-17T14:04:38.121Z,20.39
2023-04-17T14:07:05.709Z,20.41
2023-04-17T14:09:32.819Z,20.18
2023-04-17T14:11:59.675Z,20.39
2023-04-17T14:14:27.175Z,20.05
2023-04-17T14:16:53.892Z,20.01
2023-04-17T14:19:21.266Z,19.91
2023-04-17T14:21:48.078Z,20.02
2023-04-17T14:24:14.853Z,20.04
2023-04-17T14:26:42.207Z,20.08
2023-04-17T14:29:10.795Z,20.05
2023-04-17T14:31:37.923Z,19.89
2023-04-17T14:34:04.790Z,19.95
2023-04-17T14:36:31.725Z,19.86
2023-04-17T14:38:58.954Z,19.65
2023-04-17T14:41:29.947Z,19.79
2023-04-17T14:43:56.941Z,19.78
2023-04-17T14:46:23.754Z,19.88
2023-04-17T14:48:55.539Z,19.82
2023-04-17T14:51:24.088Z,19.62
2023-04-17T14:53:53.083Z,19.57
2023-04-17T14:56:21.687Z,19.61
2023-04-17T14:58:48.872Z,19.69
2023-04-17T15:01:16.020Z,19.72
2023-04-17T15:03:47.353Z,19.78
2023-04-17T15:06:14.888Z,19.85
2023-04-17T15:08:41.781Z,19.93
2023-04-17T15:11:08.937Z,19.87
2023-04-17T15:13:36.005Z,20.04
2023-04-17T15:16:03.039Z,19.97
2023-04-17T15:18:29.889Z,20.11
2023-04-17T15:20:56.733Z,19.92
2023-04-17T15:23:25.406Z,20.08
2023-04-17T15:25:54.259Z,20.10
2023-04-17T15:28:21.562Z,19.57
2023-04-17T15:30:48.320Z,19.21
2023-04-17T15:33:15.176Z,19.56
2023-04-17T15:35:41.992Z,19.78
2023-04-17T15:38:08.800Z,19.85
2023-04-17T15:40:35.763Z,19.96
2023-04-17T15:43:02.618Z,19.87
2023-04-17T15:45:29.530Z,19.96
2023-04-17T15:47:56.470Z,19.94
2023-04-17T15:50:23.281Z,20.00
2023-04-17T15:52:49.975Z,20.11
2023-04-17T15:55:16.959Z,19.85
2023-04-17T15:57:43.714Z,19.95
2023-04-17T16:00:11.082Z,19.77
2023-04-17T16:02:37.833Z,19.56
2023-04-17T16:05:05.004Z,19.58
2023-04-17T16:07:32.132Z,19.59
2023-04-17T16:09:59.146Z,19.65
2023-04-17T16:12:28.109Z,19.60
2023-04-17T16:14:55.048Z,19.66
2023-04-17T16:17:21.866Z,19.66
2023-04-17T16:19:50.583Z,19.63
2023-04-17T16:22:19.272Z,19.48
2023-04-17T16:24:46.004Z,19.59
2023-04-17T16:27:12.750Z,19.64
2023-04-17T16:29:39.560Z,19.72
2023-04-17T16:32:06.239Z,19.62
2023-04-17T16:34:33.411Z,19.62
2023-04-17T16:37:00.265Z,19.68
2023-04-17T16:39:26.977Z,19.54
2023-04-17T16:41:53.880Z,19.56
2023-04-17T16:44:20.658Z,19.60
2023-04-17T16:47:09.355Z,19.57
2023-04-17T16:49:34.228Z,19.61
2023-04-17T16:52:01.032Z,19.73
2023-04-17T16:54:27.751Z,19.74
2023-04-17T16:56:54.554Z,19.61
2023-04-17T16:59:21.295Z,19.59
2023-04-17T17:01:49.762Z,19.64
2023-04-17T17:04:16.721Z,19.56
2023-04-17T17:06:43.602Z,19.51
2023-04-17T17:09:10.497Z,19.56
2023-04-17T17:11:37.454Z,19.51
2023-04-17T17:14:04.308Z,19.59
2023-04-17T17:16:31.137Z,19.58
2023-04-17T17:18:58.036Z,19.62
2023-04-17T17:21:24.790Z,19.57
2023-04-17T17:23:51.622Z,19.51
2023-04-17T17:26:18.519Z,19.46
2023-04-17T17:28:50.972Z,19.33
2023-04-17T17:31:18.279Z,19.36
2023-04-17T17:33:49.897Z,19.35
2023-04-17T17:36:17.041Z,19.19
2023-04-17T17:38:44.273Z,19.30
2023-04-17T17:41:11.093Z,19.14
2023-04-17T17:43:37.916Z,19.08
2023-04-17T17:46:04.835Z,18.81
2023-04-17T17:48:31.692Z,18.79
2023-04-17T17:50:58.413Z,18.54
2023-04-17T17:53:27.112Z,18.53
2023-04-17T17:55:56.096Z,18.48
2023-04-17T17:58:23.418Z,18.45
2023-04-17T18:00:50.968Z,18.34
2023-04-17T18:03:18.004Z,18.23
2023-04-17T18:05:46.679Z,18.22
2023-04-17T18:08:14.725Z,18.10
2023-04-17T18:10:41.443Z,18.03
2023-04-17T18:13:08.304Z,18.07
2023-04-17T18:15:36.219Z,18.12
2023-04-17T18:18:03.329Z,18.01
2023-04-17T18:20:30.136Z,17.91
2023-04-17T18:22:57.627Z,17.86
2023-04-17T18:25:24.534Z,17.92
2023-04-17T18:27:51.286Z,17.91
2023-04-17T18:30:18.218Z,17.80
2023-04-17T18:32:45.037Z,17.81
2023-04-17T18:35:11.757Z,17.72
2023-04-17T18:37:39.666Z,17.69
2023-04-17T18:40:07.983Z,17.64
2023-04-17T18:42:34.756Z,17.67
2023-04-17T18:45:01.592Z,17.75
2023-04-17T18:47:28.427Z,17.65
2023-04-17T18:49:55.316Z,17.68
2023-04-17T18:52:22.243Z,17.72
2023-04-17T18:54:49.017Z,17.75
2023-04-17T18:57:15.776Z,17.67
2023-04-17T18:59:43.363Z,17.64
2023-04-17T19:02:10.305Z,17.66
2023-04-17T19:04:37.119Z,17.68
2023-04-17T19:07:03.980Z,17.63
2023-04-17T19:09:30.848Z,17.58
2023-04-17T19:11:58.603Z,17.58
2023-04-17T19:14:25.593Z,17.56
2023-04-17T19:16:53.385Z,17.59
2023-04-17T19:19:20.307Z,17.61
2023-04-17T19:21:47.071Z,17.59
2023-04-17T19:24:13.833Z,17.62
2023-04-17T19:26:40.786Z,17.65
2023-04-17T19:29:07.578Z,17.64
2023-04-17T19:31:34.458Z,17.62
2023-04-17T19:34:01.649Z,17.64
2023-04-17T19:36:28.566Z,17.63
2023-04-17T19:38:56.466Z,17.58
2023-04-17T19:41:23.182Z,17.54
2023-04-17T19:43:51.486Z,17.58
2023-04-17T19:46:21.111Z,17.56
2023-04-17T19:48:49.325Z,17.57
2023-04-17T19:51:16.797Z,17.58
2023-04-17T19:53:45.667Z,17.39
2023-04-17T19:56:12.462Z,17.50
2023-04-17T19:58:40.940Z,17.50
2023-04-17T20:01:07.886Z,17.42
2023-04-17T20:03:35.645Z,17.50
2023-04-17T20:06:03.553Z,17.45
2023-04-17T20:08:30.326Z,17.49
2023-04-17T20:10:57.103Z,17.49
2023-04-17T20:13:23.812Z,17.49
2023-04-17T20:15:50.628Z,17.49
2023-04-17T20:18:17.928Z,17.50
2023-04-17T20:20:44.708Z,17.50
2023-04-17T20:23:11.610Z,17.49
2023-04-17T20:25:38.376Z,17.51
2023-04-17T20:28:05.400Z,17.51
2023-04-17T20:30:32.156Z,17.50
2023-04-17T20:32:59.054Z,17.50
2023-04-17T20:35:25.876Z,17.53
2023-04-17T20:37:52.918Z,17.55
2023-04-17T20:40:20.117Z,17.54
2023-04-17T20:42:47.511Z,17.51
2023-04-17T20:45:14.617Z,17.56
2023-04-17T20:47:56.440Z,17.56
2023-04-17T20:50:25.461Z,17.48
2023-04-17T20:52:52.245Z,17.52
2023-04-17T20:55:19.999Z,17.51
2023-04-17T20:57:47.406Z,17.44
2023-04-17T21:00:14.695Z,17.30
2023-04-17T21:02:42.052Z,17.39
2023-04-17T21:05:09.437Z,17.41
2023-04-17T21:07:36.826Z,17.39
2023-04-17T21:10:04.255Z,17.39
2023-04-17T21:12:33.082Z,17.36
2023-04-17T21:15:00.151Z,17.38
2023-04-17T21:17:27.053Z,17.38
2023-04-17T21:19:56.198Z,17.34
2023-04-17T21:22:23.167Z,17.24
2023-04-17T21:24:50.035Z,17.25
2023-04-17T21:27:16.886Z,17.22
2023-04-17T21:29:43.869Z,17.23
2023-04-17T21:32:10.772Z,17.24
2023-04-17T21:34:37.649Z,17.21
2023-04-17T21:37:05.170Z,17.22
2023-04-17T21:39:33.300Z,17.23
2023-04-17T21:42:00.932Z,17.19
2023-04-17T21:44:28.500Z,17.20
2023-04-17T21:46:55.377Z,17.18
2023-04-17T21:49:23.722Z,17.17
2023-04-17T21:51:50.696Z,17.22
2023-04-17T21:54:17.552Z,17.22
2023-04-17T21:56:44.452Z,17.22
2023-04-17T21:59:11.362Z,17.24
2023-04-17T22:01:38.334Z,17.24
2023-04-17T22:04:05.334Z,17.25
2023-04-17T22:06:37.757Z,17.25
2023-04-17T22:09:08.814Z,17.24
2023-04-17T22:11:38.551Z,17.25
2023-04-17T22:14:05.495Z,17.24
2023-04-17T22:16:32.393Z,17.23
2023-04-17T22:18:59.162Z,17.23
2023-04-17T22:21:26.848Z,17.23
2023-04-17T22:23:53.572Z,17.25
2023-04-17T22:26:21.206Z,17.23
2023-04-17T22:28:48.014Z,17.23
2023-04-17T22:31:15.733Z,17.18
2023-04-17T22:33:43.244Z,17.16
2023-04-17T22:36:09.935Z,17.17
2023-04-17T22:38:37.137Z,17.16
2023-04-17T22:41:04.901Z,17.14
2023-04-17T22:43:31.627Z,17.14
2023-04-17T22:45:58.389Z,17.13
2023-04-17T22:48:25.719Z,17.06
2023-04-17T22:50:52.476Z,17.07
2023-04-17T22:53:19.213Z,17.04
2023-04-17T22:55:45.958Z,17.01
2023-04-17T22:58:12.955Z,16.96
2023-04-17T23:00:39.706Z,17.01
2023-04-17T23:03:06.717Z,16.99
2023-04-17T23:05:33.628Z,17.00
2023-04-17T23:08:00.397Z,17.00
2023-04-17T23:10:27.156Z,16.99
2023-04-17T23:12:53.888Z,17.02
2023-04-17T23:15:21.102Z,17.03
2023-04-17T23:17:47.921Z,17.01
2023-04-17T23:20:14.685Z,17.04
2023-04-17T23:22:41.521Z,17.03
2023-04-17T23:25:08.814Z,17.05
2023-04-17T23:27:35.621Z,17.06
2023-04-17T23:30:02.709Z,17.04
2023-04-17T23:32:29.476Z,17.04
2023-04-17T23:34:56.333Z,17.01
2023-04-17T23:37:23.100Z,17.01
2023-04-17T23:39:49.918Z,17.02
2023-04-17T23:42:16.640Z,16.98
2023-04-17T23:44:43.541Z,16.98
2023-04-17T23:47:13.948Z,16.99
2023-04-17T23:49:40.928Z,17.00
2023-04-17T23:52:07.655Z,17.00
2023-04-17T23:54:34.440Z,17.02
2023-04-17T23:57:02.030Z,17.05
2023-04-17T23:59:28.747Z,17.01
